Overview Statistics Trail Chart Weather Telemetry Raw packets
 

This is the latest recevied weather packets stored in our database for station/object KC3JUG-13. If no packets are shown the sender has not sent any weather packets the latest 10 day(s).

<< 6 7 8 9 10 11 12 >>
Time Temp. Humidity Pressure Rain* Wind** Luminosity Snow
1788489385 24.44° C 91% 1015.2 hPa 0 mm - - -
1788488605 24.44° C 91% 1015.2 hPa 0 mm - - -
1788487825 24.44° C 90% 1015.3 hPa 0 mm - - -
1788487046 25° C 88% 1014.9 hPa 0 mm - - -
1788486265 25.56° C 85% 1014.9 hPa 0 mm - - -
1788485485 26.11° C 83% 1015.2 hPa 0 mm - - -
1788484705 26.11° C 82% 1015.4 hPa 0 mm - - -
1788483925 26.11° C 82% 1015.5 hPa 0 mm - - -
1788483145 25.56° C 82% 1015.8 hPa 0 mm - - -
1788482366 25.56° C 82% 1015.9 hPa 0 mm - - -
1788481585 25.56° C 83% 1015.7 hPa 0 mm - - -
1788480806 25.56° C 84% 1015.6 hPa 0 mm - - -
1788480025 26.11° C 81% 1015.5 hPa 0 mm - - -
1788479246 26.11° C 81% 1015.2 hPa 0 mm - - -
1788478466 26.11° C 81% 1014.9 hPa 0 mm - - -
1788477686 26.11° C 81% 1015.1 hPa 0 mm - - -
1788476906 26.11° C 82% 1015.2 hPa 0 mm - - -
1788476126 26.67° C 82% 1015.2 hPa 0 mm - - -
1788475346 26.67° C 83% 1014.9 hPa 0 mm - - -
1788474566 27.22° C 82% 1014.8 hPa 0 mm - - -
1788473786 27.78° C 81% 1014.7 hPa 0 mm - - -
1788473006 27.78° C 79% 1014.8 hPa 0 mm - - -
1788472226 28.33° C 79% 1014.7 hPa 0 mm - - -
1788471446 28.33° C 79% 1014.7 hPa 0 mm - - -
1788470666 27.78° C 81% 1014.4 hPa 0 mm - - -

* Rain latest hour (hover to see other rain measurements)
** Current wind speed in m/s (hover to see current wind gust speed)